Enterprise — WYB2848 — position and weather

sailwx.info

Track history (hours):
 
Tides and Currents Weather Stations Pressure Air Temp Water Temp Dewpoint Dewpoint Depression Visibility Wind Speed Wind Dir Waves Ship Positions

Enterprise

Owner: SEAL BEACH ANGLERS, INC, LONG BEACH, CA. More information available from US FCC via Universal Licensing System and Coast Guard Vessel Documentation Center.

Last reported at 2017-Sep-21 21:57 UTC. Time now 2017-Sep-22 20:47 UTC.
Position N 33°46' W 118°12'.

Type: Ship. MMSI: 367095040.

Date/timePositionNaut miles runAvg speedWind from/ knotsBaromVisibWave heightAir tempDewpointWater temp
2017-Sep-21 21:57N 33°46' W 118°12'3 7.3
2017-Sep-21 21:30N 33°43' W 118°11'4 8.4
2017-Sep-21 21:00N 33°39' W 118°10'4 8.0
2017-Sep-21 20:30N 33°35' W 118°09'4 1.6
2017-Sep-21 17:54N 33°37' W 118°12'2 4.8
2017-Sep-21 17:30N 33°39' W 118°14'1 2.4
2017-Sep-21 17:00N 33°38' W 118°13'0 1.0
2017-Sep-21 16:30N 33°38' W 118°13'0 0.7
2017-Sep-21 16:00N 33°38' W 118°13'1 2.7
2017-Sep-21 15:28N 33°38' W 118°12'2 4.2
2017-Sep-21 14:57N 33°39' W 118°14'1 2.7
2017-Sep-21 14:29N 33°39' W 118°13'5 8.3
2017-Sep-21 13:55N 33°43' W 118°09'1 2.5
2017-Sep-21 13:28N 33°44' W 118°09'3 0.2
2017-Sep-20 23:33N 33°46' W 118°12'0 2.1
2017-Sep-20 23:30N 33°46' W 118°12'4 8.0
2017-Sep-20 23:00N 33°42' W 118°11'4 3.4
2017-Sep-20 21:47N 33°38' W 118°12'2 7.2
2017-Sep-20 21:30N 33°36' W 118°11'4 0.1
2017-Sep-19 15:21N 33°38' W 118°14'0 0.1
2017-Sep-19 14:57N 33°38' W 118°14'5 5.5
2017-Sep-19 14:02N 33°42' W 118°10'0 8.7
2017-Sep-19 13:59N 33°42' W 118°09'1 2.5
2017-Sep-19 13:29N 33°43' W 118°09'3 0.3
2017-Sep-19 01:05N 33°46' W 118°12'0 0.0
2017-Sep-19 01:00N 33°46' W 118°12'0 0.0
2017-Sep-19 00:27N 33°46' W 118°12'3 6.0
2017-Sep-19 00:00N 33°43' W 118°11'4 8.7
2017-Sep-18 23:30N 33°39' W 118°14'3 0.3
2017-Sep-18 14:55N 33°37' W 118°16'4 8.6
2017-Sep-18 14:30N 33°39' W 118°13'5 8.8
2017-Sep-18 13:59N 33°43' W 118°09'2 3.0
2017-Sep-18 13:26N 33°44' W 118°10'2 5.4
2017-Sep-18 12:59N 33°46' W 118°12'0 0.0
2017-Sep-18 12:30N 33°46' W 118°12'0 0.0
2017-Sep-18 00:28N 33°46' W 118°12'4 7.8
2017-Sep-18 00:00N 33°42' W 118°11'5 9.2
2017-Sep-17 23:30N 33°39' W 118°16'2 0.2
2017-Sep-17 14:55N 33°37' W 118°15'4 8.3
2017-Sep-17 14:29N 33°40' W 118°12'4 8.9
2017-Sep-17 14:00N 33°43' W 118°08'1 2.2
2017-Sep-17 13:28N 33°44' W 118°09'3 5.6
2017-Sep-17 12:59N 33°46' W 118°12'0 0.0
2017-Sep-17 00:35N 33°46' W 118°12'0 2.1
2017-Sep-17 00:30N 33°46' W 118°12'4 8.0
2017-Sep-17 00:00N 33°42' W 118°11'5 9.5
2017-Sep-16 23:30N 33°38' W 118°14'1 0.2
2017-Sep-16 14:58N 33°37' W 118°15'4 8.7
2017-Sep-16 14:29N 33°40' W 118°12'5 8.8
2017-Sep-16 13:58N 33°43' W 118°08'2 3.2
2017-Sep-16 13:24N 33°44' W 118°10'2 5.1
2017-Sep-16 13:00N 33°46' W 118°12'0 0.0
2017-Sep-16 12:30N 33°46' W 118°12'0 0.0
2017-Sep-16 00:43N 33°46' W 118°12'1 3.4
2017-Sep-16 00:30N 33°45' W 118°11'4 8.8
2017-Sep-16 00:00N 33°41' W 118°11'5 9.5
2017-Sep-15 23:29N 33°37' W 118°15'2 0.2
2017-Sep-15 14:59N 33°36' W 118°15'4 7.9
2017-Sep-15 14:29N 33°39' W 118°12'4 8.7
2017-Sep-15 14:00N 33°43' W 118°11'2 3.1
2017-Sep-15 13:30N 33°44' W 118°09'3 5.6
2017-Sep-15 13:00N 33°46' W 118°12'0 0.0
2017-Sep-15 01:30N 33°45' W 118°11'4 8.2
2017-Sep-15 01:00N 33°41' W 118°11'6 0.6
2017-Sep-14 15:31N 33°36' W 118°15'0 7.4
2017-Sep-14 15:30N 33°36' W 118°14'3 5.3
2017-Sep-14 14:55N 33°39' W 118°13'6 3.9
2017-Sep-14 13:27N 33°44' W 118°09'3 5.4
2017-Sep-14 12:59N 33°46' W 118°12'0 0.0
2017-Sep-13 23:41N 33°46' W 118°12'1 3.7
2017-Sep-13 23:30N 33°45' W 118°11'4 8.5
2017-Sep-13 23:00N 33°41' W 118°11'3 5.8
2017-Sep-13 22:30N 33°39' W 118°13'1 1.5
2017-Sep-13 22:00N 33°38' W 118°13'1 1.2
2017-Sep-13 21:30N 33°39' W 118°14'0 0.4
2017-Sep-13 21:00N 33°39' W 118°14'4 7.4
2017-Sep-13 20:30N 33°37' W 118°10'1 2.8
2017-Sep-13 20:00N 33°36' W 118°10'4 7.4
2017-Sep-13 19:30N 33°38' W 118°13'0 1.0
2017-Sep-13 19:00N 33°38' W 118°13'0 0.3
2017-Sep-13 18:30N 33°38' W 118°13'1 1.6
2017-Sep-13 18:00N 33°39' W 118°13'0 0.5
2017-Sep-13 17:30N 33°39' W 118°13'1 1.7
2017-Sep-13 16:55N 33°38' W 118°12'1 3.3
2017-Sep-13 16:30N 33°39' W 118°13'0 0.6
2017-Sep-13 16:00N 33°39' W 118°13'0 0.7
2017-Sep-13 15:29N 33°38' W 118°13'1 1.7
2017-Sep-13 15:00N 33°38' W 118°13'0 0.8
2017-Sep-13 14:30N 33°38' W 118°13'2 4.8
2017-Sep-13 14:00N 33°40' W 118°12'4 7.7
2017-Sep-13 13:30N 33°44' W 118°11'2 3.8
2017-Sep-13 13:00N 33°46' W 118°12'0 0.0
2017-Sep-13 00:56N 33°46' W 118°12'3 6.2
2017-Sep-13 00:30N 33°43' W 118°11'4 8.7
2017-Sep-13 00:00N 33°39' W 118°12'5 9.1
2017-Sep-12 23:30N 33°35' W 118°15'9 8.8
2017-Sep-12 22:26N 33°27' W 118°20'4 8.7
2017-Sep-12 22:00N 33°23' W 118°22'0 0.1
2017-Sep-12 21:10N 33°23' W 118°22'0 0.7
2017-Sep-12 20:52N 33°23' W 118°21'2 3.9
2017-Sep-12 20:25N 33°22' W 118°20'3 7.9
2017-Sep-12 20:00N 33°19' W 118°18'2 3.4
2017-Sep-12 19:30N 33°18' W 118°20'3 5.8
2017-Sep-12 19:00N 33°19' W 118°23'3 2.7
2017-Sep-12 17:55N 33°18' W 118°19'1 2.5
2017-Sep-12 17:30N 33°18' W 118°18'5 8.9
2017-Sep-12 16:54N 33°23' W 118°16'3 7.4
2017-Sep-12 16:30N 33°26' W 118°15'6 8.6
2017-Sep-12 15:47N 33°32' W 118°12'3 8.6
2017-Sep-12 15:28N 33°34' W 118°11'3 5.4
2017-Sep-12 14:59N 33°36' W 118°08'2 5.1
2017-Sep-12 14:30N 33°38' W 118°08'4 8.6
2017-Sep-12 14:00N 33°43' W 118°08'1 2.3
2017-Sep-12 13:30N 33°44' W 118°09'3 6.5
2017-Sep-12 13:00N 33°46' W 118°12'0 0.0
2017-Sep-12 01:36N 33°46' W 118°12'0 0.5
2017-Sep-12 01:30N 33°46' W 118°12'4 7.3
2017-Sep-12 01:01N 33°42' W 118°11'4 8.7
2017-Sep-12 00:31N 33°40' W 118°15'5 9.6
2017-Sep-12 00:00N 33°36' W 118°19'5 9.4
2017-Sep-11 23:30N 33°33' W 118°24'5 9.2
2017-Sep-11 23:01N 33°30' W 118°28'  
Track history (hours):
 
Tides and Currents Weather Stations Pressure Air Temp Water Temp Dewpoint Dewpoint Depression Visibility Wind Speed Wind Dir Waves Ship Positions

Enterprise

Owner: SEAL BEACH ANGLERS, INC, LONG BEACH, CA. More information available from US FCC via Universal Licensing System and Coast Guard Vessel Documentation Center.

Last reported at 2017-Sep-21 21:57 UTC. Time now 2017-Sep-22 20:47 UTC.
Position N 33°46' W 118°12'.

Type: Ship. MMSI: 367095040.

Date/timePositionNaut miles runAvg speedWind from/ knotsBaromVisibWave heightAir tempDewpointWater temp
2017-Sep-21 21:57N 33°46' W 118°12'3 7.3
2017-Sep-21 21:30N 33°43' W 118°11'4 8.4
2017-Sep-21 21:00N 33°39' W 118°10'4 8.0
2017-Sep-21 20:30N 33°35' W 118°09'4 1.6
2017-Sep-21 17:54N 33°37' W 118°12'2 4.8
2017-Sep-21 17:30N 33°39' W 118°14'1 2.4
2017-Sep-21 17:00N 33°38' W 118°13'0 1.0
2017-Sep-21 16:30N 33°38' W 118°13'0 0.7
2017-Sep-21 16:00N 33°38' W 118°13'1 2.7
2017-Sep-21 15:28N 33°38' W 118°12'2 4.2
2017-Sep-21 14:57N 33°39' W 118°14'1 2.7
2017-Sep-21 14:29N 33°39' W 118°13'5 8.3
2017-Sep-21 13:55N 33°43' W 118°09'1 2.5
2017-Sep-21 13:28N 33°44' W 118°09'3 0.2
2017-Sep-20 23:33N 33°46' W 118°12'0 2.1
2017-Sep-20 23:30N 33°46' W 118°12'4 8.0
2017-Sep-20 23:00N 33°42' W 118°11'4 3.4
2017-Sep-20 21:47N 33°38' W 118°12'2 7.2
2017-Sep-20 21:30N 33°36' W 118°11'4 0.1
2017-Sep-19 15:21N 33°38' W 118°14'0 0.1
2017-Sep-19 14:57N 33°38' W 118°14'5 5.5
2017-Sep-19 14:02N 33°42' W 118°10'0 8.7
2017-Sep-19 13:59N 33°42' W 118°09'1 2.5
2017-Sep-19 13:29N 33°43' W 118°09'3 0.3
2017-Sep-19 01:05N 33°46' W 118°12'0 0.0
2017-Sep-19 01:00N 33°46' W 118°12'0 0.0
2017-Sep-19 00:27N 33°46' W 118°12'3 6.0
2017-Sep-19 00:00N 33°43' W 118°11'4 8.7
2017-Sep-18 23:30N 33°39' W 118°14'3 0.3
2017-Sep-18 14:55N 33°37' W 118°16'4 8.6
2017-Sep-18 14:30N 33°39' W 118°13'5 8.8
2017-Sep-18 13:59N 33°43' W 118°09'2 3.0
2017-Sep-18 13:26N 33°44' W 118°10'2 5.4
2017-Sep-18 12:59N 33°46' W 118°12'0 0.0
2017-Sep-18 12:30N 33°46' W 118°12'0 0.0
2017-Sep-18 00:28N 33°46' W 118°12'4 7.8
2017-Sep-18 00:00N 33°42' W 118°11'5 9.2
2017-Sep-17 23:30N 33°39' W 118°16'2 0.2
2017-Sep-17 14:55N 33°37' W 118°15'4 8.3
2017-Sep-17 14:29N 33°40' W 118°12'4 8.9
2017-Sep-17 14:00N 33°43' W 118°08'1 2.2
2017-Sep-17 13:28N 33°44' W 118°09'3 5.6
2017-Sep-17 12:59N 33°46' W 118°12'0 0.0
2017-Sep-17 00:35N 33°46' W 118°12'0 2.1
2017-Sep-17 00:30N 33°46' W 118°12'4 8.0
2017-Sep-17 00:00N 33°42' W 118°11'5 9.5
2017-Sep-16 23:30N 33°38' W 118°14'1 0.2
2017-Sep-16 14:58N 33°37' W 118°15'4 8.7
2017-Sep-16 14:29N 33°40' W 118°12'5 8.8
2017-Sep-16 13:58N 33°43' W 118°08'2 3.2
2017-Sep-16 13:24N 33°44' W 118°10'2 5.1
2017-Sep-16 13:00N 33°46' W 118°12'0 0.0
2017-Sep-16 12:30N 33°46' W 118°12'0 0.0
2017-Sep-16 00:43N 33°46' W 118°12'1 3.4
2017-Sep-16 00:30N 33°45' W 118°11'4 8.8
2017-Sep-16 00:00N 33°41' W 118°11'5 9.5
2017-Sep-15 23:29N 33°37' W 118°15'2 0.2
2017-Sep-15 14:59N 33°36' W 118°15'4 7.9
2017-Sep-15 14:29N 33°39' W 118°12'4 8.7
2017-Sep-15 14:00N 33°43' W 118°11'2 3.1
2017-Sep-15 13:30N 33°44' W 118°09'3 5.6
2017-Sep-15 13:00N 33°46' W 118°12'0 0.0
2017-Sep-15 01:30N 33°45' W 118°11'4 8.2
2017-Sep-15 01:00N 33°41' W 118°11'6 0.6
2017-Sep-14 15:31N 33°36' W 118°15'0 7.4
2017-Sep-14 15:30N 33°36' W 118°14'3 5.3
2017-Sep-14 14:55N 33°39' W 118°13'6 3.9
2017-Sep-14 13:27N 33°44' W 118°09'3 5.4
2017-Sep-14 12:59N 33°46' W 118°12'0 0.0
2017-Sep-13 23:41N 33°46' W 118°12'1 3.7
2017-Sep-13 23:30N 33°45' W 118°11'4 8.5
2017-Sep-13 23:00N 33°41' W 118°11'3 5.8
2017-Sep-13 22:30N 33°39' W 118°13'1 1.5
2017-Sep-13 22:00N 33°38' W 118°13'1 1.2
2017-Sep-13 21:30N 33°39' W 118°14'0 0.4
2017-Sep-13 21:00N 33°39' W 118°14'4 7.4
2017-Sep-13 20:30N 33°37' W 118°10'1 2.8
2017-Sep-13 20:00N 33°36' W 118°10'4 7.4
2017-Sep-13 19:30N 33°38' W 118°13'0 1.0
2017-Sep-13 19:00N 33°38' W 118°13'0 0.3
2017-Sep-13 18:30N 33°38' W 118°13'1 1.6
2017-Sep-13 18:00N 33°39' W 118°13'0 0.5
2017-Sep-13 17:30N 33°39' W 118°13'1 1.7
2017-Sep-13 16:55N 33°38' W 118°12'1 3.3
2017-Sep-13 16:30N 33°39' W 118°13'0 0.6
2017-Sep-13 16:00N 33°39' W 118°13'0 0.7
2017-Sep-13 15:29N 33°38' W 118°13'1 1.7
2017-Sep-13 15:00N 33°38' W 118°13'0 0.8
2017-Sep-13 14:30N 33°38' W 118°13'2 4.8
2017-Sep-13 14:00N 33°40' W 118°12'4 7.7
2017-Sep-13 13:30N 33°44' W 118°11'2 3.8
2017-Sep-13 13:00N 33°46' W 118°12'0 0.0
2017-Sep-13 00:56N 33°46' W 118°12'3 6.2
2017-Sep-13 00:30N 33°43' W 118°11'4 8.7
2017-Sep-13 00:00N 33°39' W 118°12'5 9.1
2017-Sep-12 23:30N 33°35' W 118°15'9 8.8
2017-Sep-12 22:26N 33°27' W 118°20'4 8.7
2017-Sep-12 22:00N 33°23' W 118°22'0 0.1
2017-Sep-12 21:10N 33°23' W 118°22'0 0.7
2017-Sep-12 20:52N 33°23' W 118°21'2 3.9
2017-Sep-12 20:25N 33°22' W 118°20'3 7.9
2017-Sep-12 20:00N 33°19' W 118°18'2 3.4
2017-Sep-12 19:30N 33°18' W 118°20'3 5.8
2017-Sep-12 19:00N 33°19' W 118°23'3 2.7
2017-Sep-12 17:55N 33°18' W 118°19'1 2.5
2017-Sep-12 17:30N 33°18' W 118°18'5 8.9
2017-Sep-12 16:54N 33°23' W 118°16'3 7.4
2017-Sep-12 16:30N 33°26' W 118°15'6 8.6
2017-Sep-12 15:47N 33°32' W 118°12'3 8.6
2017-Sep-12 15:28N 33°34' W 118°11'3 5.4
2017-Sep-12 14:59N 33°36' W 118°08'2 5.1
2017-Sep-12 14:30N 33°38' W 118°08'4 8.6
2017-Sep-12 14:00N 33°43' W 118°08'1 2.3
2017-Sep-12 13:30N 33°44' W 118°09'3 6.5
2017-Sep-12 13:00N 33°46' W 118°12'0 0.0
2017-Sep-12 01:36N 33°46' W 118°12'0 0.5
2017-Sep-12 01:30N 33°46' W 118°12'4 7.3
2017-Sep-12 01:01N 33°42' W 118°11'4 8.7
2017-Sep-12 00:31N 33°40' W 118°15'5 9.6
2017-Sep-12 00:00N 33°36' W 118°19'5 9.4
2017-Sep-11 23:30N 33°33' W 118°24'5 9.2
2017-Sep-11 23:01N 33°30' W 118°28'  

Dump ship's entire track history